createdAt,value
2022-12-15T00:12:45.978Z,-0.22
2022-12-15T00:32:46.002Z,-0.23
2022-12-15T00:52:46.052Z,-0.51
2022-12-15T01:12:46.034Z,-0.66
2022-12-15T01:32:46.069Z,-0.77
2022-12-15T01:52:45.973Z,-0.75
2022-12-15T02:12:46.066Z,-0.64
2022-12-15T02:32:46.007Z,-0.71
2022-12-15T02:52:46.029Z,-0.85
2022-12-15T03:12:46.065Z,-0.86
2022-12-15T03:32:46.068Z,-0.80
2022-12-15T03:52:46.083Z,-0.77
2022-12-15T04:32:46.083Z,-1.02
2022-12-15T04:52:46.105Z,-1.13
2022-12-15T05:12:46.136Z,-1.00
2022-12-15T05:32:46.177Z,-0.98
2022-12-15T05:52:46.161Z,-0.78
2022-12-15T06:12:46.184Z,-0.91
2022-12-15T06:32:46.208Z,-0.96
2022-12-15T06:52:46.221Z,-0.97
2022-12-15T07:12:46.242Z,-0.92
2022-12-15T07:32:46.303Z,-0.95
2022-12-15T07:52:46.215Z,-1.22
2022-12-15T08:12:46.249Z,-1.02
2022-12-15T08:32:46.266Z,-0.92
2022-12-15T08:52:46.234Z,-0.80
2022-12-15T09:12:46.248Z,-0.79
2022-12-15T09:32:46.270Z,-0.69
2022-12-15T09:52:46.292Z,-0.52
2022-12-15T10:12:46.446Z,-0.53
2022-12-15T10:32:46.518Z,-0.60
2022-12-15T10:52:46.524Z,-0.59
2022-12-15T11:12:46.539Z,-0.37
2022-12-15T11:32:46.451Z,-0.31
2022-12-15T11:52:46.480Z,-0.27
2022-12-15T12:12:46.491Z,-0.05
2022-12-15T12:32:46.519Z,-0.44
2022-12-15T12:52:46.366Z,-0.36
2022-12-15T13:12:46.547Z,-0.31
2022-12-15T13:32:46.588Z,-0.27
2022-12-15T13:52:46.591Z,-0.31
2022-12-15T14:12:46.632Z,-0.18
2022-12-15T14:32:46.511Z,-0.31
2022-12-15T14:52:46.660Z,-0.33
2022-12-15T15:12:46.499Z,-0.33
2022-12-15T15:32:46.414Z,-0.23
2022-12-15T15:52:46.556Z,-0.29
2022-12-15T16:12:46.453Z,-0.20
2022-12-15T16:32:46.454Z,-0.20
2022-12-15T16:52:46.502Z,-0.30
2022-12-15T17:12:46.495Z,-0.22
2022-12-15T17:32:46.523Z,-0.14
2022-12-15T17:52:46.609Z,-0.05
2022-12-15T18:12:46.548Z,0.00
2022-12-15T18:32:46.715Z,0.00
2022-12-15T18:52:46.665Z,-0.04
2022-12-15T19:12:46.634Z,-0.12
2022-12-15T19:32:46.514Z,-0.01
2022-12-15T19:52:46.532Z,0.01
2022-12-15T20:12:46.691Z,0.24
2022-12-15T20:32:46.624Z,0.36
2022-12-15T20:52:46.593Z,0.50
2022-12-15T21:12:46.677Z,0.64
2022-12-15T21:32:46.682Z,0.66
2022-12-15T21:52:46.884Z,0.76
2022-12-15T22:12:46.661Z,0.78
2022-12-15T22:32:46.805Z,0.82
2022-12-15T22:52:46.832Z,0.82
2022-12-15T23:12:46.794Z,0.85
2022-12-15T23:32:46.809Z,0.78
2022-12-15T23:52:46.669Z,0.71
